Time;durP1;ratioP1;P1;durP2;ratioP2;P2;SDS_P1;SDS_P2;PMS_P1;PMS_P2;Temp;Humidity;BMP_temperature;BMP_pressure;BME280_temperature;BME280_humidity;BME280_pressure;Samples;Min_cycle;Max_cycle;Signal;HPM_P1;HPM_P2
2023/09/27 07:03:16;;;;;;;2.33;2.08;;;;;;;-146.24;60.68;47095.84;5108455;27;20503;-85
2023/09/27 07:05:44;;;;;;;2.13;2.00;;;;;;;-146.24;58.09;47159.16;5103980;28;20197;-84
2023/09/27 07:08:14;;;;;;;2.50;2.35;;;;;;;-146.24;58.05;47147.66;5099717;28;20224;-82
2023/09/27 07:10:44;;;;;;;6.78;1.88;;;;;;;-146.24;59.06;47128.47;5092849;28;20272;-84
2023/09/27 07:13:11;;;;;;;2.13;2.03;;;;;;;-146.24;58.96;47139.97;5094486;28;20202;-82
2023/09/27 07:15:39;;;;;;;5.05;2.70;;;;;;;-146.24;59.73;47118.88;5095616;28;20279;-84
2023/09/27 07:18:10;;;;;;;2.63;2.35;;;;;;;-146.24;60.91;47141.91;5094358;28;20204;-82
2023/09/27 07:20:40;;;;;;;5.30;2.95;;;;;;;-146.24;59.67;47128.47;5092226;28;20277;-81
2023/09/27 07:23:14;;;;;;;6.05;2.22;;;;;;;-146.24;60.04;47214.81;5097464;28;20226;-82
2023/09/27 07:25:42;;;;;;;2.33;2.13;;;;;;;-146.24;56.65;47151.50;5097382;28;20182;-84
2023/09/27 07:28:10;;;;;;;2.28;2.08;;;;;;;-146.24;59.36;47099.69;5098142;28;20263;-83
2023/09/27 07:30:37;;;;;;;6.47;1.98;;;;;;;-146.24;58.38;47109.28;5117070;28;20206;-83
2023/09/27 07:33:09;;;;;;;5.45;2.20;;;;;;;-146.24;59.27;47184.09;5122844;28;20209;-82
2023/09/27 07:35:42;;;;;;;2.53;2.42;;;;;;;-146.24;60.02;47122.72;5115667;28;20190;-82
2023/09/27 07:38:12;;;;;;;7.30;2.13;;;;;;;-146.24;59.38;47147.66;5112803;28;20201;-86
2023/09/27 07:40:39;;;;;;;6.47;2.40;;;;;;;-146.24;59.45;47201.38;5108328;28;20210;-83
2023/09/27 07:43:07;;;;;;;4.22;2.25;;;;;;;-146.24;59.47;47139.97;5107106;28;20256;-84
2023/09/27 07:45:35;;;;;;;5.07;2.25;;;;;;;-146.24;60.94;47088.19;5107026;28;20263;-84
2023/09/27 07:48:03;;;;;;;2.28;2.10;;;;;;;-146.24;59.64;47138.06;5107744;28;20201;-82
2023/09/27 07:50:31;;;;;;;10.40;2.47;;;;;;;-146.24;60.95;47116.97;5105937;28;20684;-84
2023/09/27 07:52:59;;;;;;;2.30;2.20;;;;;;;-146.24;62.95;47130.38;5107447;28;20194;-80
2023/09/27 07:55:32;;;;;;;2.92;2.15;;;;;;;-146.24;62.32;47107.38;5115602;28;20270;-82
2023/09/27 07:57:59;;;;;;;3.53;2.05;;;;;;;-146.24;61.69;47105.44;5114014;28;20201;-82
2023/09/27 08:00:29;;;;;;;2.90;2.55;;;;;;;-146.24;60.50;47120.78;5113162;28;20193;-81
2023/09/27 08:02:57;;;;;;;4.82;2.22;;;;;;;-146.24;60.53;47143.81;5117003;28;20229;-84
2023/09/27 08:05:27;;;;;;;2.40;2.22;;;;;;;-146.24;59.26;47151.50;5125398;28;20202;-85
2023/09/27 08:07:55;;;;;;;2.47;2.28;;;;;;;-146.24;60.25;47172.59;5117208;28;20193;-85
2023/09/27 08:10:24;;;;;;;6.10;2.45;;;;;;;-146.24;59.16;47184.09;5107976;28;20225;-83
2023/09/27 08:12:53;;;;;;;4.40;2.30;;;;;;;-146.24;59.00;47115.03;5103483;28;20647;-86
2023/09/27 08:15:20;;;;;;;5.85;2.15;;;;;;;-146.24;57.32;47191.78;5094189;28;20594;-83
2023/09/27 08:17:47;;;;;;;2.30;1.85;;;;;;;-146.24;57.04;47193.69;5094700;28;20259;-84
2023/09/27 08:20:14;;;;;;;3.85;2.38;;;;;;;-146.24;57.15;47138.06;5092184;28;20190;-83
2023/09/27 08:22:42;;;;;;;2.45;2.25;;;;;;;-146.24;59.03;47130.38;5092385;28;20222;-83
2023/09/27 08:25:14;;;;;;;3.10;2.38;;;;;;;-146.24;58.64;47155.34;5091970;28;20652;-85
2023/09/27 08:27:42;;;;;;;4.00;1.92;;;;;;;-146.24;59.52;47128.47;5092180;28;20667;-87
2023/09/27 08:30:12;;;;;;;4.18;1.85;;;;;;;-146.24;59.45;47115.03;5092336;28;20194;-82
2023/09/27 08:32:40;;;;;;;2.83;2.20;;;;;;;-146.24;59.14;47124.63;5091581;28;20690;-83
2023/09/27 08:35:11;;;;;;;7.13;2.30;;;;;;;-146.24;55.91;47189.88;5091358;28;20198;-84
2023/09/27 08:37:39;;;;;;;2.38;2.17;;;;;;;-146.24;54.71;47134.22;5091933;28;20679;-83
2023/09/27 08:40:15;;;;;;;2.22;2.13;;;;;;;-146.24;56.16;47115.03;5092383;28;20195;-87
2023/09/27 08:42:43;;;;;;;6.72;3.05;;;;;;;-146.24;55.80;47182.19;5091672;28;20571;-84
2023/09/27 08:45:15;;;;;;;5.55;1.63;;;;;;;-146.24;55.25;47113.13;5092270;28;20372;-87
2023/09/27 08:47:44;;;;;;;2.55;2.35;;;;;;;-146.24;54.37;47118.88;5091815;28;20186;-85
2023/09/27 08:50:14;;;;;;;4.82;1.63;;;;;;;-146.24;54.44;47134.22;5093288;28;20205;-86
2023/09/27 08:52:47;;;;;;;2.53;1.60;;;;;;;-146.24;54.90;47107.38;5094829;28;20658;-85
2023/09/27 08:55:16;;;;;;;1.75;1.65;;;;;;;-146.24;53.33;47136.16;5091108;28;20274;-83
2023/09/27 08:57:48;;;;;;;3.70;2.50;;;;;;;-146.24;52.35;47157.25;5091583;28;20615;-88
2023/09/27 09:00:21;;;;;;;1.70;1.35;;;;;;;-146.24;52.33;47130.38;5092292;28;20612;-83
2023/09/27 09:02:52;;;;;;;2.58;1.65;;;;;;;-146.24;53.26;47130.38;5090077;28;20238;-83
2023/09/27 09:05:22;;;;;;;2.15;1.90;;;;;;;-146.24;53.96;47120.78;5091437;28;20230;-82
2023/09/27 09:07:50;;;;;;;3.70;2.05;;;;;;;-146.24;53.25;47130.38;5091326;28;20197;-85
2023/09/27 09:10:18;;;;;;;2.80;1.80;;;;;;;-146.24;54.19;47130.38;5091147;28;20202;-85
2023/09/27 09:12:47;;;;;;;7.30;2.40;;;;;;;-146.24;54.03;47130.38;5092865;28;20282;-87
2023/09/27 09:15:30;;;;;;;5.35;2.10;;;;;;;-146.24;51.39;47182.19;5093486;28;20721;-84
2023/09/27 09:17:59;;;;;;;6.57;2.47;;;;;;;-146.24;55.45;47166.84;5093477;28;20198;-88
2023/09/27 09:20:32;;;;;;;7.90;2.15;;;;;;;-146.24;58.00;47139.97;5091859;28;20214;-84
2023/09/27 09:23:04;;;;;;;3.85;2.17;;;;;;;-146.24;57.25;47159.16;5091793;28;20668;-86
2023/09/27 09:25:32;;;;;;;6.32;2.15;;;;;;;-146.24;54.08;47143.81;5090059;28;20190;-85
2023/09/27 09:28:04;;;;;;;1.80;1.70;;;;;;;-146.24;53.63;47166.84;5091313;28;20199;-87
2023/09/27 09:30:38;;;;;;;4.13;2.30;;;;;;;-146.24;55.00;47224.41;5091326;28;20202;-86
2023/09/27 09:33:12;;;;;;;2.00;1.90;;;;;;;-146.24;56.76;47147.66;5090319;28;20275;-84
2023/09/27 09:35:40;;;;;;;2.20;2.03;;;;;;;-146.24;60.42;47124.63;5091776;28;20228;-88
2023/09/27 09:38:08;;;;;;;3.13;2.45;;;;;;;-146.24;61.05;47115.03;5091794;28;20253;-88
2023/09/27 09:40:52;;;;;;;2.25;2.15;;;;;;;-146.24;59.01;47147.66;5092089;28;20700;-86
2023/09/27 09:43:33;;;;;;;6.93;2.35;;;;;;;-146.24;58.14;47134.22;5091025;28;20245;-87
2023/09/27 09:46:06;;;;;;;6.93;3.78;;;;;;;-146.24;58.28;47147.66;5092449;28;20245;-87
2023/09/27 09:48:34;;;;;;;2.38;2.17;;;;;;;-146.24;57.26;47134.22;5092425;28;20209;-84
2023/09/27 09:51:37;;;;;;;1.92;1.83;;;;;;;-146.24;56.96;47147.66;5091144;28;20205;-87
2023/09/27 09:54:09;;;;;;;5.07;2.78;;;;;;;-146.24;57.03;47216.72;5049019;28;20201;-87
2023/09/27 09:56:42;;;;;;;10.13;2.00;;;;;;;-146.24;57.83;47182.19;5092102;28;20202;-87
2023/09/27 09:59:13;;;;;;;4.15;2.30;;;;;;;-146.24;56.20;47136.16;5091800;28;20179;-86
2023/09/27 10:01:47;;;;;;;3.45;2.70;;;;;;;-146.24;56.98;47128.47;5090728;28;20749;-86
2023/09/27 10:04:16;;;;;;;7.53;2.38;;;;;;;-146.24;59.23;47145.75;5091344;28;20186;-88
2023/09/27 10:06:45;;;;;;;2.67;2.25;;;;;;;-146.24;60.00;47139.97;5090724;28;20746;-86
2023/09/27 10:09:15;;;;;;;5.18;2.00;;;;;;;-146.24;59.49;47115.03;5090997;28;20229;-87
2023/09/27 10:11:46;;;;;;;4.85;2.53;;;;;;;-146.24;60.17;47195.63;5090368;28;20202;-88
2023/09/27 10:14:17;;;;;;;2.25;2.15;;;;;;;-146.24;60.53;47113.13;5091052;28;20308;-85
2023/09/27 10:16:50;;;;;;;2.20;2.05;;;;;;;-146.24;60.91;47191.78;5090849;28;20202;-85
2023/09/27 10:19:28;;;;;;;2.67;2.35;;;;;;;-146.24;60.85;47122.72;5089700;28;20206;-83
2023/09/27 10:22:07;;;;;;;2.55;2.10;;;;;;;-146.24;61.54;47132.31;5089944;28;20190;-84
2023/09/27 10:24:36;;;;;;;2.63;2.50;;;;;;;-146.24;59.24;47143.81;5089961;28;20679;-83
2023/09/27 10:27:14;;;;;;;2.20;2.08;;;;;;;-146.24;58.22;47155.34;5089441;28;20258;-83
2023/09/27 10:29:59;;;;;;;3.17;2.05;;;;;;;-146.24;56.30;47145.75;5090122;28;20197;-84
2023/09/27 10:32:31;;;;;;;4.03;2.17;;;;;;;-146.24;58.13;47139.97;5089469;28;20194;-87
2023/09/27 10:35:17;;;;;;;3.53;2.50;;;;;;;-146.24;62.43;47124.63;5090254;28;20566;-83
2023/09/27 10:38:04;;;;;;;6.50;2.45;;;;;;;-146.24;62.32;47143.81;5089770;28;20378;-87
2023/09/27 10:40:42;;;;;;;2.63;2.42;;;;;;;-146.24;60.91;47136.16;5089671;28;20727;-85
2023/09/27 10:43:09;;;;;;;2.85;1.90;;;;;;;-146.24;58.44;47122.72;5090101;28;20597;-84
2023/09/27 10:45:37;;;;;;;5.10;2.00;;;;;;;-146.24;54.98;47201.38;5089705;28;20667;-84
2023/09/27 10:48:19;;;;;;;2.47;1.90;;;;;;;-146.24;53.89;47141.91;5089028;28;20202;-84
2023/09/27 10:50:52;;;;;;;1.88;1.77;;;;;;;-146.24;57.23;47163.00;5089658;28;20212;-82
2023/09/27 10:53:25;;;;;;;2.47;2.28;;;;;;;-146.24;59.21;47124.63;5090216;28;20210;-87
2023/09/27 10:55:53;;;;;;;2.80;2.00;;;;;;;-146.24;60.22;47111.19;5090003;28;20205;-87
2023/09/27 10:58:24;;;;;;;6.20;2.30;;;;;;;-146.24;61.53;47124.63;5090693;28;20218;-86
2023/09/27 11:00:56;;;;;;;3.88;2.03;;;;;;;-146.24;62.48;47143.81;5090031;28;20186;-86
2023/09/27 11:03:30;;;;;;;4.35;2.20;;;;;;;-146.24;60.88;47115.03;5089261;28;20232;-87
2023/09/27 11:06:09;;;;;;;2.38;2.20;;;;;;;-146.24;60.07;47130.38;5090245;28;20281;-87
2023/09/27 11:08:36;;;;;;;5.43;2.13;;;;;;;-146.24;59.83;47195.63;5089339;28;20197;-86
2023/09/27 11:11:08;;;;;;;2.30;2.20;;;;;;;-146.24;61.73;47182.19;5091772;28;20198;-87
2023/09/27 11:13:41;;;;;;;2.88;2.50;;;;;;;-146.24;62.21;47151.50;5093569;28;20688;-86
2023/09/27 11:16:10;;;;;;;7.40;2.20;;;;;;;-146.24;62.92;47214.81;5089999;28;20264;-86
2023/09/27 11:18:46;;;;;;;7.40;2.20;;;;;;;-146.24;63.16;47168.75;5090566;28;20198;-89
2023/09/27 11:21:17;;;;;;;8.05;2.38;;;;;;;-146.24;62.95;47174.53;5091475;28;20200;-88
2023/09/27 11:23:59;;;;;;;14.18;3.80;;;;;;;-146.24;61.43;47189.88;5094786;28;20232;-85
2023/09/27 11:26:31;;;;;;;3.97;3.17;;;;;;;-146.24;62.84;47195.63;5094255;28;20195;-87
2023/09/27 11:29:02;;;;;;;3.30;2.60;;;;;;;-146.24;63.43;47143.81;5089940;28;20319;-87
2023/09/27 11:31:33;;;;;;;2.45;2.25;;;;;;;-146.24;64.40;47124.63;5089663;28;20292;-87
2023/09/27 11:34:20;;;;;;;2.03;1.90;;;;;;;-146.24;64.93;47130.38;5089388;28;20293;-85
2023/09/27 11:36:53;;;;;;;3.88;2.35;;;;;;;-146.24;65.58;47138.06;5089772;28;20209;-86
2023/09/27 11:39:26;;;;;;;2.45;2.25;;;;;;;-146.24;65.22;47088.19;5089613;28;20205;-88
2023/09/27 11:42:10;;;;;;;2.20;2.10;;;;;;;-146.24;64.24;47186.03;5089910;28;20224;-87
2023/09/27 11:44:38;;;;;;;3.17;2.65;;;;;;;-146.24;64.45;47182.19;5089898;28;20316;-88
2023/09/27 11:47:07;;;;;;;5.07;2.28;;;;;;;-146.24;63.40;47132.31;5089424;28;20203;-88
2023/09/27 11:49:37;;;;;;;3.08;2.35;;;;;;;-146.24;64.16;47143.81;5092635;28;20636;-84
2023/09/27 11:52:10;;;;;;;4.03;2.25;;;;;;;-146.24;63.85;47130.38;5092796;28;20625;-86
2023/09/27 11:54:45;;;;;;;9.93;2.13;;;;;;;-146.24;65.84;47168.75;5092852;28;20206;-87
2023/09/27 11:57:12;;;;;;;1.88;1.60;;;;;;;-146.24;65.85;47116.97;5093294;28;20200;-86
2023/09/27 11:59:43;;;;;;;5.53;2.42;;;;;;;-146.24;65.30;47157.25;5093360;28;20500;-87
2023/09/27 12:02:18;;;;;;;3.05;2.00;;;;;;;-146.24;64.35;47116.97;5092833;28;20302;-86
2023/09/27 12:04:47;;;;;;;2.53;2.38;;;;;;;-146.24;64.05;47120.78;5093251;28;20205;-87
2023/09/27 12:07:16;;;;;;;2.00;1.90;;;;;;;-146.24;64.53;47203.28;5093030;28;20307;-88
2023/09/27 12:09:43;;;;;;;2.90;2.67;;;;;;;-146.24;64.90;47113.13;5092472;28;20316;-86
2023/09/27 12:12:14;;;;;;;2.78;2.30;;;;;;;-146.24;64.71;47168.75;5092852;28;20202;-87
2023/09/27 12:14:42;;;;;;;5.53;2.50;;;;;;;-146.24;65.35;47088.19;5092837;28;20621;-86
2023/09/27 12:17:10;;;;;;;2.35;1.90;;;;;;;-146.24;64.71;47092.00;5092525;28;20248;-85
2023/09/27 12:19:38;;;;;;;2.13;2.03;;;;;;;-146.24;63.53;47086.25;5092714;28;20210;-87
2023/09/27 12:22:07;;;;;;;6.80;2.63;;;;;;;-146.24;63.78;47120.78;5093444;28;20234;-87
2023/09/27 12:24:36;;;;;;;2.85;2.20;;;;;;;-146.24;64.36;47111.19;5093081;28;20226;-87
2023/09/27 12:27:06;;;;;;;4.78;1.90;;;;;;;-146.24;64.26;47116.97;5093063;28;20255;-87
2023/09/27 12:29:35;;;;;;;2.95;2.53;;;;;;;-146.24;64.20;47186.03;5093436;28;20202;-87
2023/09/27 12:32:03;;;;;;;7.13;2.47;;;;;;;-146.24;65.11;47164.94;5092525;28;20268;-86
2023/09/27 12:34:31;;;;;;;3.15;2.05;;;;;;;-146.24;64.49;47122.72;5092702;28;20198;-86
2023/09/27 12:36:59;;;;;;;2.95;2.63;;;;;;;-146.24;63.78;47193.69;5093696;28;20206;-87
2023/09/27 12:39:28;;;;;;;4.60;2.15;;;;;;;-146.24;64.03;47105.44;5093343;28;20282;-86
2023/09/27 12:41:58;;;;;;;2.00;1.90;;;;;;;-146.24;64.23;47099.69;5097424;28;20262;-87
2023/09/27 12:44:26;;;;;;;2.33;2.22;;;;;;;-146.24;63.78;47130.38;5114526;28;20226;-87
2023/09/27 12:46:53;;;;;;;4.55;2.33;;;;;;;-146.24;64.95;47076.66;5113260;28;20195;-87
2023/09/27 12:49:21;;;;;;;4.68;2.10;;;;;;;-146.24;65.58;47147.66;5106883;28;20216;-84
2023/09/27 12:51:52;;;;;;;6.07;2.72;;;;;;;-146.24;65.15;47093.94;5101617;28;20206;-88
2023/09/27 12:54:19;;;;;;;2.08;1.98;;;;;;;-146.24;64.51;47115.03;5100579;28;20201;-87
2023/09/27 12:56:49;;;;;;;1.98;1.88;;;;;;;-146.24;65.52;47088.19;5100513;28;20198;-86
2023/09/27 12:59:19;;;;;;;5.03;2.67;;;;;;;-146.24;65.51;47157.25;5094134;28;20198;-87
2023/09/27 13:01:47;;;;;;;3.15;1.88;;;;;;;-146.24;66.18;47067.06;5091653;28;20241;-87
2023/09/27 13:04:18;;;;;;;3.42;3.13;;;;;;;-146.24;65.35;47109.28;5092232;28;20275;-86
2023/09/27 13:06:46;;;;;;;3.58;3.28;;;;;;;-146.24;65.23;47164.94;5092391;28;20252;-86
2023/09/27 13:09:14;;;;;;;3.60;2.65;;;;;;;-146.24;64.83;47153.41;5091835;28;20282;-87
2023/09/27 13:11:42;;;;;;;5.22;2.40;;;;;;;-146.24;64.59;47157.25;5103114;28;20205;-86
2023/09/27 13:14:15;;;;;;;2.75;2.30;;;;;;;-146.24;65.25;47178.34;5098975;28;20195;-86
2023/09/27 13:16:43;;;;;;;2.50;2.40;;;;;;;-146.24;65.92;47111.19;5100869;28;20190;-86
2023/09/27 13:19:10;;;;;;;5.95;2.63;;;;;;;-146.24;66.08;47103.53;5093893;28;20205;-87
2023/09/27 13:21:38;;;;;;;2.88;2.67;;;;;;;-146.24;67.01;47163.00;5093091;28;20577;-86
2023/09/27 13:24:06;;;;;;;2.78;2.55;;;;;;;-146.24;66.50;47101.59;5092695;28;20236;-86
2023/09/27 13:26:36;;;;;;;3.42;2.17;;;;;;;-146.24;66.76;47097.78;5093814;28;20209;-87
2023/09/27 13:29:04;;;;;;;2.35;2.15;;;;;;;-146.24;67.30;47093.94;5080648;28;20305;-87
2023/09/27 13:31:36;;;;;;;5.18;2.60;;;;;;;-146.24;67.55;47107.38;5098039;28;20229;-87
2023/09/27 13:34:05;;;;;;;2.38;2.17;;;;;;;-146.24;67.71;47107.38;5112822;28;20661;-86
2023/09/27 13:36:36;;;;;;;4.70;2.60;;;;;;;-146.24;68.06;47074.75;5112230;28;20225;-87
2023/09/27 13:39:13;;;;;;;8.70;2.13;;;;;;;-146.24;68.40;47139.97;5112423;28;20228;-88
2023/09/27 13:41:41;;;;;;;2.88;2.67;;;;;;;-146.24;68.91;47170.69;5109900;28;20227;-87
2023/09/27 13:44:10;;;;;;;4.50;2.40;;;;;;;-146.24;69.37;47113.13;5110672;28;20249;-86
2023/09/27 13:46:46;;;;;;;2.30;2.20;;;;;;;-146.24;69.33;47088.19;5110495;28;20244;-87
2023/09/27 13:49:14;;;;;;;2.22;2.08;;;;;;;-146.24;69.47;47109.28;5110992;28;20217;-88
2023/09/27 13:51:41;;;;;;;6.03;2.50;;;;;;;-146.24;70.60;47105.44;5109391;28;20221;-85
2023/09/27 13:54:11;;;;;;;2.25;2.10;;;;;;;-146.24;70.55;47088.19;5111048;28;20221;-87
2023/09/27 13:56:39;;;;;;;2.58;2.47;;;;;;;-146.24;70.67;47092.00;5110074;28;20289;-86
2023/09/27 13:59:07;;;;;;;3.35;2.83;;;;;;;-146.24;69.75;47105.44;5110342;28;20652;-87
2023/09/27 14:01:35;;;;;;;3.13;2.63;;;;;;;-146.24;69.39;47067.06;5109936;28;20695;-85
2023/09/27 14:04:04;;;;;;;3.95;2.70;;;;;;;-146.24;68.06;47132.31;5110214;28;20240;-86
2023/09/27 14:06:33;;;;;;;2.40;2.17;;;;;;;-146.24;67.48;47097.78;5110546;28;20225;-86
2023/09/27 14:09:00;;;;;;;2.20;2.08;;;;;;;-146.24;67.72;47053.63;5110624;28;20229;-86
2023/09/27 14:11:27;;;;;;;2.60;2.40;;;;;;;-146.24;67.15;47118.88;5111029;28;20293;-87
2023/09/27 14:13:55;;;;;;;3.83;2.15;;;;;;;-146.24;67.13;47118.88;5110123;28;20225;-85
2023/09/27 14:16:22;;;;;;;6.15;2.83;;;;;;;-146.24;67.44;47136.16;5102401;28;20281;-86
2023/09/27 14:18:50;;;;;;;2.83;2.67;;;;;;;-146.24;68.17;47107.38;5090283;28;20217;-84
2023/09/27 14:21:22;;;;;;;2.60;2.25;;;;;;;-146.24;69.53;47145.75;5089940;28;20713;-85
2023/09/27 14:23:50;;;;;;;2.65;2.45;;;;;;;-146.24;69.45;47092.00;5088206;28;20638;-85
2023/09/27 14:26:19;;;;;;;3.22;2.28;;;;;;;-146.24;70.35;47067.06;5089903;28;20226;-87
2023/09/27 14:28:53;;;;;;;4.68;2.80;;;;;;;-146.24;70.00;47151.50;5089804;28;20621;-86
2023/09/27 14:31:28;;;;;;;5.45;2.30;;;;;;;-146.24;70.14;47070.91;5091777;28;20303;-87
2023/09/27 14:33:59;;;;;;;2.58;2.35;;;;;;;-146.24;70.26;47099.69;5090455;28;20262;-85
2023/09/27 14:36:29;;;;;;;2.45;2.35;;;;;;;-146.24;70.55;47070.91;5090824;28;20243;-85
2023/09/27 14:38:59;;;;;;;2.70;2.33;;;;;;;-146.24;70.68;47086.25;5093629;28;20218;-86
2023/09/27 14:41:31;;;;;;;6.30;2.70;;;;;;;-146.24;70.11;47120.78;5089880;28;20222;-87
2023/09/27 14:44:04;;;;;;;3.53;3.25;;;;;;;-146.24;70.13;47093.94;5090331;28;20325;-88
2023/09/27 14:46:33;;;;;;;3.55;2.50;;;;;;;-146.24;69.64;47082.41;5089139;28;20286;-87
2023/09/27 14:49:01;;;;;;;3.20;2.92;;;;;;;-146.24;69.91;47072.81;5089957;28;20229;-86
2023/09/27 14:51:35;;;;;;;8.60;2.95;;;;;;;-146.24;70.70;47074.75;5093618;28;20236;-88
2023/09/27 14:54:05;;;;;;;6.32;2.40;;;;;;;-146.24;70.74;47084.34;5100671;28;20240;-85
2023/09/27 14:56:42;;;;;;;2.78;2.53;;;;;;;-146.24;71.19;47122.72;5099801;28;20218;-85
2023/09/27 14:59:16;;;;;;;4.47;2.63;;;;;;;-146.24;71.32;47139.97;5100260;28;20353;-85
2023/09/27 15:01:45;;;;;;;2.92;2.67;;;;;;;-146.24;71.74;47153.41;5099565;28;20241;-86
2023/09/27 15:04:17;;;;;;;2.60;2.40;;;;;;;-146.24;71.76;47136.16;5096124;28;20252;-86
2023/09/27 15:06:45;;;;;;;2.90;2.47;;;;;;;-146.24;72.22;47113.13;5095016;28;20340;-87
2023/09/27 15:09:42;;;;;;;2.60;2.50;;;;;;;-146.24;72.56;47153.41;5096933;28;20217;-87
2023/09/27 15:12:45;;;;;;;2.45;2.33;;;;;;;-146.24;71.91;47070.91;5099631;28;20241;-86
2023/09/27 15:15:19;;;;;;;2.60;2.50;;;;;;;-146.24;72.69;47090.09;5099072;28;20281;-87
2023/09/27 15:17:47;;;;;;;5.25;2.45;;;;;;;-146.24;72.32;47095.84;5100296;28;20222;-87
2023/09/27 15:20:16;;;;;;;3.05;2.20;;;;;;;-146.24;72.83;47055.56;5098304;28;20246;-87
2023/09/27 15:22:55;;;;;;;6.47;2.35;;;;;;;-146.24;71.91;47130.38;5096318;28;20745;-86
2023/09/27 15:25:22;;;;;;;3.38;2.80;;;;;;;-146.24;71.62;47090.09;5101129;28;20241;-87
2023/09/27 15:27:57;;;;;;;3.65;2.55;;;;;;;-146.24;71.36;47090.09;5101664;28;20246;-89
2023/09/27 15:30:24;;;;;;;8.05;2.70;;;;;;;-146.24;70.75;47065.16;5102754;28;20290;-86
2023/09/27 15:32:52;;;;;;;2.50;2.38;;;;;;;-146.24;70.94;47059.41;5103006;28;20222;-85
2023/09/27 15:35:20;;;;;;;2.33;2.13;;;;;;;-146.24;70.52;47111.19;5103884;28;20381;-86
2023/09/27 15:37:53;;;;;;;3.00;2.42;;;;;;;-146.24;70.45;47092.00;5102797;28;20222;-86
2023/09/27 15:40:24;;;;;;;6.43;3.25;;;;;;;-146.24;70.12;47088.19;5103265;28;20817;-87
2023/09/27 15:42:53;;;;;;;3.30;2.90;;;;;;;-146.24;69.88;47151.50;5101959;28;20250;-87
2023/09/27 15:45:24;;;;;;;2.10;2.00;;;;;;;-146.24;70.14;47095.84;5102945;28;20245;-86
2023/09/27 15:47:53;;;;;;;2.97;2.75;;;;;;;-146.24;70.19;47076.66;5097818;28;20217;-85
2023/09/27 15:50:21;;;;;;;9.57;3.03;;;;;;;-146.24;70.35;47065.16;5122829;28;20239;-85
2023/09/27 15:52:49;;;;;;;9.20;2.80;;;;;;;-146.24;70.42;47093.94;5118387;28;20232;-85
2023/09/27 15:55:18;;;;;;;2.17;2.08;;;;;;;-146.24;70.23;47113.13;5122737;28;20216;-83
2023/09/27 15:57:45;;;;;;;2.70;2.50;;;;;;;-146.24;70.17;47099.69;5124049;28;20218;-86
2023/09/27 16:00:15;;;;;;;5.07;2.60;;;;;;;-146.24;70.17;47157.25;5125848;28;20221;-87
2023/09/27 16:02:48;;;;;;;3.22;2.00;;;;;;;-146.24;69.98;47061.31;5124710;28;20252;-86
2023/09/27 16:05:15;;;;;;;2.08;1.98;;;;;;;-146.24;69.56;47080.50;5125449;28;20240;-84
2023/09/27 16:07:43;;;;;;;5.15;2.65;;;;;;;-146.24;70.02;47067.06;5124703;28;20222;-87
2023/09/27 16:10:11;;;;;;;1.83;1.83;;;;;;;-146.24;69.92;47138.06;5123464;28;20217;-85
2023/09/27 16:12:42;;;;;;;6.38;2.38;;;;;;;-146.24;69.93;47063.22;5122177;28;20277;-82
2023/09/27 16:15:10;;;;;;;4.55;2.17;;;;;;;-146.24;70.04;47063.22;5124312;28;20225;-85
2023/09/27 16:17:38;;;;;;;6.07;2.40;;;;;;;-146.24;70.25;47124.63;5121319;28;20302;-84
2023/09/27 16:20:07;;;;;;;2.28;2.08;;;;;;;-146.24;70.37;47078.59;5120134;28;20229;-85
2023/09/27 16:22:36;;;;;;;2.65;2.13;;;;;;;-146.24;69.97;47092.00;5117788;28;20219;-84
2023/09/27 16:25:08;;;;;;;3.13;2.65;;;;;;;-146.24;69.65;47076.66;5127980;28;20233;-83
2023/09/27 16:27:55;;;;;;;2.33;2.22;;;;;;;-146.24;69.25;47047.88;5119671;28;20247;-82
2023/09/27 16:30:24;;;;;;;2.05;1.95;;;;;;;-146.24;69.56;47120.78;5126946;28;20217;-84
2023/09/27 16:32:52;;;;;;;2.38;2.20;;;;;;;-146.24;70.11;47078.59;5122323;28;20225;-83
2023/09/27 16:35:22;;;;;;;1.90;1.80;;;;;;;-146.24;69.93;47070.91;5121680;28;20312;-84
2023/09/27 16:37:53;;;;;;;6.28;2.50;;;;;;;-146.24;69.95;47155.34;5120873;28;20229;-85
2023/09/27 16:40:21;;;;;;;7.03;2.17;;;;;;;-146.24;70.33;47053.63;5119086;28;20615;-85
2023/09/27 16:43:03;;;;;;;2.75;2.58;;;;;;;-146.24;70.06;47107.38;5118184;28;20225;-85
2023/09/27 16:45:46;;;;;;;;;;;;;;;;;;;;;
2023/09/27 16:48:18;;;;;;;7.03;2.20;;;;;;;-146.24;70.35;47132.31;5065708;28;20238;-85
2023/09/27 16:50:48;;;;;;;5.97;2.28;;;;;;;-146.24;70.54;47105.44;5072196;28;20231;-84
2023/09/27 16:53:16;;;;;;;3.10;2.30;;;;;;;-146.24;70.25;47057.47;5080280;28;20230;-85
2023/09/27 16:55:51;;;;;;;2.47;2.22;;;;;;;-146.24;70.41;47063.22;5091516;28;20237;-84
2023/09/27 16:58:21;;;;;;;2.45;2.35;;;;;;;-146.24;70.45;47028.69;5092826;28;20274;-85
2023/09/27 17:00:49;;;;;;;3.30;2.63;;;;;;;-146.24;70.78;47111.19;5093757;28;20201;-85
2023/09/27 17:03:19;;;;;;;2.45;2.35;;;;;;;-146.24;70.49;47092.00;5094006;28;20221;-85
2023/09/27 17:05:48;;;;;;;2.05;2.05;;;;;;;-146.24;70.59;47078.59;5092801;28;20313;-85
2023/09/27 17:08:17;;;;;;;2.55;2.45;;;;;;;-146.24;71.10;47074.75;5094446;28;20194;-85
2023/09/27 17:10:45;;;;;;;2.88;2.50;;;;;;;-146.24;70.59;47084.34;5093444;28;20288;-85
2023/09/27 17:13:13;;;;;;;2.65;2.17;;;;;;;-146.24;70.85;47065.16;5092814;28;20201;-83
2023/09/27 17:15:50;;;;;;;5.38;2.83;;;;;;;-146.24;70.83;47067.06;5092232;28;20290;-85
2023/09/27 17:18:19;;;;;;;4.95;2.75;;;;;;;-146.24;70.86;47040.22;5092737;28;20198;-84
2023/09/27 17:20:48;;;;;;;6.60;2.33;;;;;;;-146.24;70.65;47061.31;5091447;28;20218;-84
2023/09/27 17:23:17;;;;;;;3.80;2.17;;;;;;;-146.24;70.69;47061.31;5092187;28;20208;-83
2023/09/27 17:25:45;;;;;;;3.83;2.42;;;;;;;-146.24;71.03;47063.22;5092060;28;20594;-84
2023/09/27 17:28:14;;;;;;;3.90;2.65;;;;;;;-146.24;70.85;47074.75;5092661;28;20218;-84
2023/09/27 17:31:02;;;;;;;;;;;;;;;;;;;;;
2023/09/27 17:33:47;;;;;;;;;;;;;;;;;;;;;
2023/09/27 17:36:22;;;;;;;5.05;2.72;;;;;;;-146.24;71.91;47063.22;5093116;28;20598;-83
2023/09/27 17:39:04;;;;;;;3.30;2.97;;;;;;;-146.24;71.03;47136.16;5093770;28;20215;-84
2023/09/27 17:41:43;;;;;;;3.60;2.90;;;;;;;-146.24;71.56;47063.22;5094964;28;20206;-85
2023/09/27 17:44:11;;;;;;;3.08;2.88;;;;;;;-146.24;71.51;47069.00;5090560;28;20202;-85
2023/09/27 17:46:41;;;;;;;8.68;3.28;;;;;;;-146.24;71.33;47084.34;5092149;28;20306;-85
2023/09/27 17:49:09;;;;;;;2.97;2.30;;;;;;;-146.24;71.65;47074.75;5091741;28;20277;-84
2023/09/27 17:51:36;;;;;;;10.82;2.25;;;;;;;-146.24;71.92;47069.00;5090988;28;20198;-84
2023/09/27 17:54:05;;;;;;;2.80;2.22;;;;;;;-146.24;71.96;47017.19;5092079;28;20600;-85
2023/09/27 17:56:33;;;;;;;2.15;2.05;;;;;;;-146.24;71.74;47045.97;5089685;28;20584;-85
2023/09/27 17:59:08;;;;;;;3.45;2.65;;;;;;;-146.24;71.84;47067.06;5091304;28;20214;-85
2023/09/27 18:01:42;;;;;;;3.45;2.60;;;;;;;-146.24;72.11;47057.47;5090682;28;20261;-85
2023/09/27 18:04:32;;;;;;;;;;;;;;;;;;;;;
2023/09/27 18:07:01;;;;;;;3.40;2.40;;;;;;;-146.24;72.29;47090.09;5090132;28;20199;-86
2023/09/27 18:09:29;;;;;;;3.13;2.80;;;;;;;-146.24;72.74;47088.19;5090690;28;20202;-84
2023/09/27 18:11:56;;;;;;;5.05;2.33;;;;;;;-146.24;72.50;47063.22;5089271;28;20201;-84
2023/09/27 18:14:29;;;;;;;2.95;2.35;;;;;;;-146.24;72.81;47022.94;5089521;28;20214;-84
2023/09/27 18:17:02;;;;;;;3.97;2.53;;;;;;;-146.24;72.57;47032.53;5089582;28;20273;-85
2023/09/27 18:22:16;;;;;;;2.25;2.10;;;;;;;-146.24;72.02;47032.53;5084603;28;20201;-84
2023/09/27 18:24:58;;;;;;;3.10;2.63;;;;;;;-146.24;71.99;47047.88;5089458;28;20234;-85
2023/09/27 18:27:28;;;;;;;5.38;2.22;;;;;;;-146.24;72.13;47086.25;5090069;28;20280;-85
2023/09/27 18:30:24;;;;;;;7.05;2.83;;;;;;;-146.24;71.75;47032.53;5089835;28;20554;-85
2023/09/27 18:32:53;;;;;;;2.50;2.30;;;;;;;-146.24;71.65;47109.28;5089271;28;20204;-85
2023/09/27 18:35:33;;;;;;;3.53;2.67;;;;;;;-146.24;72.09;47044.06;5089324;28;20198;-83
2023/09/27 18:40:49;;;;;;;2.47;2.30;;;;;;;-146.24;72.72;47065.16;5086329;28;20198;-84
2023/09/27 18:43:18;;;;;;;6.93;2.28;;;;;;;-146.24;70.98;47101.59;5089960;28;20206;-85
2023/09/27 18:45:46;;;;;;;3.33;2.72;;;;;;;-146.24;71.58;47115.03;5089136;28;20329;-85
2023/09/27 18:48:18;;;;;;;4.45;2.33;;;;;;;-146.24;71.31;47070.91;5089279;28;20667;-83